Time;durP1;ratioP1;P1;durP2;ratioP2;P2;SDS_P1;SDS_P2;PMS_P1;PMS_P2;Temp;Humidity;BMP_temperature;BMP_pressure;BME280_temperature;BME280_humidity;BME280_pressure;Samples;Min_cycle;Max_cycle;Signal;HPM_P1;HPM_P2
2022/11/06 00:01:35;;;;;;;10.97;6.13;;;5.60;99.90;;;;;;4160411;28;20825;-76
2022/11/06 00:03:37;;;;;;;12.13;5.80;;;5.60;99.90;;;;;;4167627;28;20512;-75
2022/11/06 00:08:00;;;;;;;12.97;6.30;;;5.60;99.90;;;;;;4165724;28;20459;-76
2022/11/06 00:10:02;;;;;;;13.13;6.20;;;5.60;99.90;;;;;;4163122;28;20557;-76
2022/11/06 00:12:06;;;;;;;10.23;5.27;;;5.50;99.90;;;;;;4169334;28;20464;-76
2022/11/06 00:14:08;;;;;;;13.47;5.77;;;5.60;99.90;;;;;;4161980;28;20552;-74
2022/11/06 00:16:12;;;;;;;13.90;6.50;;;5.60;99.90;;;;;;4160386;28;20475;-75
2022/11/06 00:18:13;;;;;;;10.47;5.90;;;5.50;99.90;;;;;;4163560;28;20450;-77
2022/11/06 00:20:15;;;;;;;12.53;6.07;;;5.50;99.90;;;;;;4165291;28;21196;-76
2022/11/06 00:22:17;;;;;;;13.40;5.63;;;5.50;99.90;;;;;;4166920;28;20546;-77
2022/11/06 00:24:19;;;;;;;11.00;5.77;;;5.50;99.90;;;;;;4169969;28;21057;-75
2022/11/06 00:26:22;;;;;;;13.93;5.83;;;5.50;99.90;;;;;;4163156;28;20494;-76
2022/11/06 00:28:25;;;;;;;13.00;6.50;;;5.60;99.90;;;;;;4165645;28;20485;-74
2022/11/06 00:30:27;;;;;;;14.63;6.43;;;5.50;99.90;;;;;;4163554;28;20477;-76
2022/11/06 00:32:29;;;;;;;13.97;6.17;;;5.50;99.90;;;;;;4163950;28;20481;-76
2022/11/06 00:34:31;;;;;;;9.63;5.70;;;5.60;99.90;;;;;;4160310;28;20453;-75
2022/11/06 00:36:33;;;;;;;10.80;5.90;;;5.50;99.90;;;;;;4159303;28;20522;-76
2022/11/06 00:38:35;;;;;;;14.20;6.43;;;5.50;99.90;;;;;;4159633;28;20829;-74
2022/11/06 00:40:37;;;;;;;16.27;6.57;;;5.50;99.90;;;;;;4161108;28;20552;-74
2022/11/06 00:42:39;;;;;;;12.67;6.53;;;5.50;99.90;;;;;;4159778;28;20542;-76
2022/11/06 00:44:42;;;;;;;15.60;7.00;;;5.50;99.90;;;;;;4164807;28;20478;-74
2022/11/06 00:46:44;;;;;;;13.80;6.17;;;5.50;99.90;;;;;;4164284;28;21042;-75
2022/11/06 00:48:46;;;;;;;15.70;6.37;;;5.50;99.90;;;;;;4160682;28;20451;-75
2022/11/06 00:50:51;;;;;;;12.90;5.97;;;5.40;99.90;;;;;;4160658;28;20458;-77
2022/11/06 00:52:55;;;;;;;13.03;6.03;;;5.50;99.90;;;;;;4162158;28;20463;-75
2022/11/06 00:54:57;;;;;;;12.23;5.90;;;5.40;99.90;;;;;;4162653;28;20546;-76
2022/11/06 00:56:59;;;;;;;16.00;6.90;;;5.50;99.90;;;;;;4162556;28;20506;-77
2022/11/06 00:59:06;;;;;;;15.03;6.50;;;5.40;99.90;;;;;;4166196;28;20484;-75
2022/11/06 01:01:12;;;;;;;12.47;6.27;;;5.40;99.90;;;;;;4162388;28;20489;-77
2022/11/06 01:03:14;;;;;;;11.43;6.07;;;5.40;99.90;;;;;;4161349;28;20486;-76
2022/11/06 01:05:16;;;;;;;15.57;5.57;;;5.40;99.90;;;;;;4164332;28;22257;-76
2022/11/06 01:07:18;;;;;;;11.70;5.77;;;5.40;99.90;;;;;;4167356;28;20489;-77
2022/11/06 01:09:24;;;;;;;10.77;5.83;;;5.40;99.90;;;;;;4166369;28;20955;-77
2022/11/06 01:11:28;;;;;;;14.83;5.30;;;5.40;99.90;;;;;;4174405;28;20824;-76
2022/11/06 01:13:30;;;;;;;12.00;5.50;;;5.30;99.90;;;;;;4171871;28;20546;-76
2022/11/06 01:15:36;;;;;;;11.70;6.17;;;5.40;99.90;;;;;;4162708;28;20528;-76
2022/11/06 01:17:39;;;;;;;10.40;6.00;;;5.40;99.90;;;;;;4163138;28;20477;-76
2022/11/06 01:19:41;;;;;;;9.83;5.47;;;5.40;99.90;;;;;;4165983;28;20495;-76
2022/11/06 01:21:45;;;;;;;12.00;5.80;;;5.40;99.90;;;;;;4169313;28;20835;-76
2022/11/06 01:23:53;;;;;;;14.80;6.10;;;5.30;99.90;;;;;;4163703;28;20504;-75
2022/11/06 01:25:58;;;;;;;12.07;6.10;;;5.30;99.90;;;;;;4154373;28;20479;-75
2022/11/06 01:28:00;;;;;;;13.53;6.53;;;5.30;99.90;;;;;;4163075;28;20856;-77
2022/11/06 01:30:02;;;;;;;13.77;6.37;;;5.30;99.90;;;;;;4163824;28;20556;-75
2022/11/06 01:32:04;;;;;;;11.47;6.00;;;5.30;99.90;;;;;;4161165;28;20502;-75
2022/11/06 01:34:08;;;;;;;13.43;6.00;;;5.30;99.90;;;;;;4166873;28;20483;-76
2022/11/06 01:36:10;;;;;;;12.47;6.43;;;5.30;99.90;;;;;;4160581;28;20477;-75
2022/11/06 01:38:12;;;;;;;12.60;6.67;;;5.30;99.90;;;;;;4166857;28;21030;-76
2022/11/06 01:40:14;;;;;;;19.67;7.63;;;5.30;99.90;;;;;;4165366;28;20951;-76
2022/11/06 01:42:19;;;;;;;12.07;6.10;;;5.30;99.90;;;;;;4156585;28;20972;-76
2022/11/06 01:44:58;;;;;;;12.73;6.47;;;5.30;99.90;;;;;;4157825;28;20494;-75
2022/11/06 01:47:01;;;;;;;10.97;5.47;;;5.30;99.90;;;;;;4161947;28;20481;-76
2022/11/06 01:49:06;;;;;;;12.60;5.60;;;5.30;99.90;;;;;;4165840;28;20472;-76
2022/11/06 01:51:10;;;;;;;14.53;6.23;;;5.30;99.90;;;;;;4162459;28;20467;-75
2022/11/06 01:53:13;;;;;;;13.40;6.40;;;5.30;99.90;;;;;;4167817;28;21157;-75
2022/11/06 01:55:20;;;;;;;9.93;5.90;;;5.30;99.90;;;;;;4161681;28;20992;-75
2022/11/06 01:57:22;;;;;;;10.83;5.93;;;5.30;99.90;;;;;;4158949;28;20469;-75
2022/11/06 01:59:27;;;;;;;13.83;6.53;;;5.30;99.90;;;;;;4164434;28;20939;-75
2022/11/06 02:01:29;;;;;;;16.03;6.90;;;5.40;99.90;;;;;;4158736;28;20970;-75
2022/11/06 02:03:31;;;;;;;10.97;6.40;;;5.30;99.90;;;;;;4164450;28;20478;-75
2022/11/06 02:05:33;;;;;;;14.70;6.70;;;5.30;99.90;;;;;;4168553;28;20484;-75
2022/11/06 02:07:37;;;;;;;15.73;6.97;;;5.30;99.90;;;;;;4162101;28;20453;-76
2022/11/06 02:09:39;;;;;;;12.30;6.43;;;5.30;99.90;;;;;;4160601;28;20847;-75
2022/11/06 02:11:43;;;;;;;13.67;6.17;;;5.30;99.90;;;;;;4164726;28;20465;-75
2022/11/06 02:13:55;;;;;;;14.67;6.37;;;5.30;99.90;;;;;;4166226;28;20481;-76
2022/11/06 02:16:06;;;;;;;17.23;7.23;;;5.30;99.90;;;;;;4165330;28;20581;-75
2022/11/06 02:18:18;;;;;;;11.50;6.10;;;5.30;99.90;;;;;;4162177;28;20450;-75
2022/11/06 02:20:29;;;;;;;12.93;6.80;;;5.20;99.90;;;;;;4166406;28;20467;-75
2022/11/06 02:22:54;;;;;;;13.20;6.53;;;5.20;99.90;;;;;;4153263;28;20622;-75
2022/11/06 02:25:09;;;;;;;16.33;6.57;;;5.20;99.90;;;;;;4162417;28;20498;-75
2022/11/06 02:27:13;;;;;;;21.40;7.10;;;5.20;99.90;;;;;;4165174;28;20452;-75
2022/11/06 02:29:20;;;;;;;18.47;7.27;;;5.30;99.90;;;;;;4164622;28;20540;-75
2022/11/06 02:31:29;;;;;;;16.20;7.10;;;5.20;99.90;;;;;;4160164;28;20530;-76
2022/11/06 02:33:35;;;;;;;18.00;7.50;;;5.20;99.90;;;;;;4168961;28;20456;-76
2022/11/06 02:35:42;;;;;;;13.33;6.87;;;5.20;99.90;;;;;;4163751;28;20577;-75
2022/11/06 02:37:46;;;;;;;15.57;7.07;;;5.30;99.90;;;;;;4164205;28;20445;-75
2022/11/06 02:39:51;;;;;;;17.10;7.33;;;5.20;99.90;;;;;;4160963;28;21097;-75
2022/11/06 02:41:55;;;;;;;16.67;7.40;;;5.20;99.90;;;;;;4166800;28;20454;-75
2022/11/06 02:43:59;;;;;;;15.03;6.80;;;5.20;99.90;;;;;;4168569;28;21020;-76
2022/11/06 02:46:06;;;;;;;14.43;6.47;;;5.20;99.90;;;;;;4166638;28;20473;-76
2022/11/06 02:48:10;;;;;;;15.73;8.13;;;5.20;99.90;;;;;;4171053;28;20537;-76
2022/11/06 02:50:14;;;;;;;17.30;7.17;;;5.20;99.90;;;;;;4168096;28;20924;-75
2022/11/06 02:52:21;;;;;;;18.83;7.47;;;5.20;99.90;;;;;;4163607;28;20463;-75
2022/11/06 02:54:26;;;;;;;17.13;7.80;;;5.20;99.90;;;;;;4165820;28;20507;-76
2022/11/06 02:56:32;;;;;;;17.27;7.43;;;5.20;99.90;;;;;;4162515;28;20489;-76
2022/11/06 02:58:39;;;;;;;18.13;7.80;;;5.20;99.90;;;;;;4165463;28;20617;-75
2022/11/06 03:00:47;;;;;;;14.90;6.83;;;5.20;99.90;;;;;;4165485;28;20522;-75
2022/11/06 03:02:55;;;;;;;11.77;6.37;;;5.20;99.90;;;;;;4163180;28;20451;-76
2022/11/06 03:05:04;;;;;;;13.57;6.50;;;5.20;99.90;;;;;;4167714;28;20542;-76
2022/11/06 03:07:09;;;;;;;13.63;6.33;;;5.20;99.90;;;;;;4170404;28;20536;-75
2022/11/06 03:09:15;;;;;;;14.53;7.30;;;5.20;99.90;;;;;;4165472;28;20532;-75
2022/11/06 03:11:22;;;;;;;15.37;7.33;;;5.10;99.90;;;;;;4161832;28;20488;-76
2022/11/06 03:13:32;;;;;;;16.03;7.60;;;5.20;99.90;;;;;;4168566;28;20443;-77
2022/11/06 03:15:39;;;;;;;16.07;8.23;;;5.10;99.90;;;;;;4167219;28;20559;-78
2022/11/06 03:17:46;;;;;;;15.00;7.17;;;5.10;99.90;;;;;;4168006;28;20441;-78
2022/11/06 03:19:53;;;;;;;13.77;7.37;;;5.20;99.90;;;;;;4169028;28;20534;-76
2022/11/06 03:22:02;;;;;;;15.00;7.13;;;5.20;99.90;;;;;;4167033;28;20559;-78
2022/11/06 03:24:12;;;;;;;15.57;7.40;;;5.10;99.90;;;;;;4168740;28;20863;-76
2022/11/06 03:26:17;;;;;;;13.43;7.03;;;5.20;99.90;;;;;;4167803;28;20564;-77
2022/11/06 03:28:27;;;;;;;13.17;7.47;;;5.10;99.90;;;;;;4165015;28;20453;-77
2022/11/06 03:30:29;;;;;;;16.67;7.60;;;5.10;99.90;;;;;;4167596;28;20453;-77
2022/11/06 03:32:37;;;;;;;18.27;8.10;;;5.20;99.90;;;;;;4163960;28;20480;-77
2022/11/06 03:34:44;;;;;;;16.67;7.90;;;5.20;99.90;;;;;;4161086;28;20533;-77
2022/11/06 03:36:52;;;;;;;16.37;7.60;;;5.20;99.90;;;;;;4167209;28;20470;-78
2022/11/06 03:38:59;;;;;;;18.70;8.17;;;5.20;99.90;;;;;;4167221;28;20451;-75
2022/11/06 03:41:06;;;;;;;15.13;7.20;;;5.10;99.90;;;;;;4160966;28;20801;-76
2022/11/06 03:43:10;;;;;;;13.90;7.37;;;5.10;99.90;;;;;;4164129;28;20445;-75
2022/11/06 03:45:18;;;;;;;16.70;7.77;;;5.20;99.90;;;;;;4158921;28;20486;-75
2022/11/06 03:47:23;;;;;;;22.47;8.30;;;5.20;99.90;;;;;;4161008;28;20454;-75
2022/11/06 03:49:30;;;;;;;17.07;8.50;;;5.10;99.90;;;;;;4158426;28;20537;-76
2022/11/06 03:51:38;;;;;;;20.77;8.63;;;5.10;99.90;;;;;;4164901;28;20460;-76
2022/11/06 03:53:46;;;;;;;16.87;8.70;;;5.20;99.90;;;;;;4163966;28;20496;-75
2022/11/06 03:55:54;;;;;;;18.40;8.63;;;5.20;99.90;;;;;;4165057;28;20899;-75
2022/11/06 03:57:59;;;;;;;18.67;9.40;;;5.20;99.90;;;;;;4167279;28;20466;-75
2022/11/06 04:00:03;;;;;;;18.43;8.93;;;5.20;99.90;;;;;;4166911;28;20468;-75
2022/11/06 04:02:05;;;;;;;19.70;9.57;;;5.20;99.90;;;;;;4168112;28;20512;-75
2022/11/06 04:04:12;;;;;;;17.03;7.97;;;5.20;99.90;;;;;;4164295;28;20454;-76
2022/11/06 04:06:20;;;;;;;21.70;8.43;;;5.20;99.90;;;;;;4158461;28;20482;-75
2022/11/06 04:15:32;;;;;;;19.03;8.63;;;5.20;99.90;;;;;;4161093;28;21592;-75
2022/11/06 04:17:35;;;;;;;23.33;9.43;;;5.20;99.90;;;;;;4160146;28;20533;-75
2022/11/06 04:19:37;;;;;;;17.33;8.53;;;5.20;99.90;;;;;;4165607;28;20843;-76
2022/11/06 04:21:52;;;;;;;17.93;9.30;;;5.20;99.90;;;;;;4166018;28;20547;-75
2022/11/06 04:26:35;;;;;;;21.97;9.53;;;5.20;99.90;;;;;;4162551;28;20489;-76
2022/11/06 04:28:44;;;;;;;18.27;8.83;;;5.20;99.90;;;;;;4164468;28;20453;-77
2022/11/06 04:30:53;;;;;;;21.53;9.90;;;5.30;99.90;;;;;;4162430;28;20484;-78
2022/11/06 04:33:03;;;;;;;18.73;8.93;;;5.20;99.90;;;;;;4161897;28;20529;-78
2022/11/06 04:35:11;;;;;;;17.30;9.23;;;5.20;99.90;;;;;;4164560;28;20459;-76
2022/11/06 04:37:20;;;;;;;22.07;9.43;;;5.20;99.90;;;;;;4172678;28;20449;-77
2022/11/06 04:39:38;;;;;;;20.90;9.43;;;5.20;99.90;;;;;;4179599;28;20859;-77
2022/11/06 04:41:45;;;;;;;20.00;9.17;;;5.30;99.90;;;;;;4173505;28;20532;-76
2022/11/06 04:43:51;;;;;;;18.10;9.17;;;5.20;99.90;;;;;;4164225;28;20472;-77
2022/11/06 04:45:56;;;;;;;21.10;9.53;;;5.30;99.90;;;;;;4168280;28;20576;-77
2022/11/06 04:47:59;;;;;;;20.00;8.80;;;5.30;99.90;;;;;;4168169;28;20531;-78
2022/11/06 04:50:03;;;;;;;20.33;9.37;;;5.30;99.90;;;;;;4167457;28;20490;-75
2022/11/06 04:52:09;;;;;;;21.70;9.13;;;5.20;99.90;;;;;;4159888;28;20545;-78
2022/11/06 04:54:11;;;;;;;22.77;9.00;;;5.30;99.90;;;;;;4168154;28;20543;-76
2022/11/06 04:56:25;;;;;;;19.23;9.57;;;5.20;99.90;;;;;;4170445;28;20499;-77
2022/11/06 04:58:27;;;;;;;15.00;8.00;;;5.20;99.90;;;;;;4169506;28;20465;-77
2022/11/06 05:00:29;;;;;;;19.87;9.07;;;5.30;99.90;;;;;;4165215;28;20488;-77
2022/11/06 05:02:31;;;;;;;21.63;9.37;;;5.20;99.90;;;;;;4167157;28;20476;-76
2022/11/06 05:04:33;;;;;;;20.20;9.03;;;5.20;99.90;;;;;;4165038;28;21013;-75
2022/11/06 05:06:35;;;;;;;19.73;8.80;;;5.10;99.90;;;;;;4160723;28;20547;-76
2022/11/06 05:08:38;;;;;;;20.00;9.23;;;5.20;99.90;;;;;;4166708;28;20449;-75
2022/11/06 05:10:39;;;;;;;18.03;9.27;;;5.20;99.90;;;;;;4161604;28;20947;-76
2022/11/06 05:12:43;;;;;;;17.33;9.20;;;5.20;99.90;;;;;;4164835;28;20473;-75
2022/11/06 05:14:44;;;;;;;21.10;9.00;;;5.20;99.90;;;;;;4165919;28;20451;-75
2022/11/06 05:16:46;;;;;;;20.07;9.53;;;5.20;99.90;;;;;;4161678;28;20471;-76
2022/11/06 05:18:48;;;;;;;17.73;8.57;;;5.20;99.90;;;;;;4162778;28;21031;-76
2022/11/06 05:22:56;;;;;;;17.67;8.93;;;5.20;99.90;;;;;;4157650;28;21203;-75
2022/11/06 05:23:11;;;;;;;19.63;9.17;;;5.20;99.90;;;;;;4156398;28;20442;-76
2022/11/06 05:25:13;;;;;;;16.27;8.23;;;5.10;99.90;;;;;;4157915;28;20576;-76
2022/11/06 05:27:15;;;;;;;25.27;9.70;;;5.10;99.90;;;;;;4167732;28;20226;-76
2022/11/06 05:29:18;;;;;;;20.63;9.13;;;5.20;99.90;;;;;;4162601;28;20975;-76
2022/11/06 05:31:19;;;;;;;19.07;9.40;;;5.10;99.90;;;;;;4162999;28;20465;-75
2022/11/06 05:33:22;;;;;;;18.27;8.70;;;5.10;99.90;;;;;;4165463;28;20462;-75
2022/11/06 05:35:24;;;;;;;20.33;8.83;;;5.20;99.90;;;;;;4157577;28;20512;-75
2022/11/06 05:37:27;;;;;;;22.70;9.60;;;5.20;99.90;;;;;;4161609;28;20446;-75
2022/11/06 05:39:29;;;;;;;21.27;10.10;;;5.10;99.90;;;;;;4163899;28;20524;-75
2022/11/06 05:41:31;;;;;;;20.73;8.90;;;5.20;99.90;;;;;;4163766;28;20536;-76
2022/11/06 05:43:33;;;;;;;23.40;9.73;;;5.10;99.90;;;;;;4163457;28;20464;-75
2022/11/06 05:45:36;;;;;;;19.73;9.60;;;5.20;99.90;;;;;;4160676;28;20484;-75
2022/11/06 05:47:40;;;;;;;17.73;8.60;;;5.10;99.90;;;;;;4168490;28;20817;-75
2022/11/06 05:49:42;;;;;;;19.67;8.83;;;5.10;99.90;;;;;;4164981;28;20453;-75
2022/11/06 05:51:44;;;;;;;18.23;9.37;;;5.10;99.90;;;;;;4165798;28;20896;-76
2022/11/06 05:53:46;;;;;;;17.80;9.10;;;5.20;99.90;;;;;;4163968;28;20464;-76
2022/11/06 05:55:50;;;;;;;22.73;8.93;;;5.10;99.90;;;;;;4176024;28;20482;-76
2022/11/06 05:57:52;;;;;;;20.73;9.30;;;5.10;99.90;;;;;;4160205;28;20513;-76
2022/11/06 05:59:54;;;;;;;19.83;9.27;;;5.10;99.90;;;;;;4162200;28;20453;-76
2022/11/06 06:01:58;;;;;;;18.70;8.93;;;5.20;99.90;;;;;;4163635;28;20468;-75
2022/11/06 06:04:00;;;;;;;16.63;9.20;;;5.10;99.90;;;;;;4171845;28;20544;-75
2022/11/06 06:06:02;;;;;;;17.40;9.13;;;5.10;99.90;;;;;;4167226;28;20567;-75
2022/11/06 06:08:04;;;;;;;20.20;9.50;;;5.20;99.90;;;;;;4162791;28;20484;-75
2022/11/06 06:10:07;;;;;;;21.03;9.70;;;5.10;99.90;;;;;;4164536;28;20550;-75
2022/11/06 06:12:12;;;;;;;17.77;9.57;;;5.10;99.90;;;;;;4161683;28;20838;-76
2022/11/06 06:14:13;;;;;;;19.77;8.90;;;5.20;99.90;;;;;;4163919;28;20466;-75
2022/11/06 06:16:16;;;;;;;19.30;8.53;;;5.20;99.90;;;;;;4169963;28;20504;-75
2022/11/06 06:18:19;;;;;;;15.37;8.27;;;5.20;99.90;;;;;;4166038;28;20465;-76
2022/11/06 06:20:21;;;;;;;18.73;8.90;;;5.20;99.90;;;;;;4162745;28;21098;-76
2022/11/06 06:22:22;;;;;;;22.27;8.93;;;5.10;99.90;;;;;;4165758;28;21170;-75
2022/11/06 06:24:24;;;;;;;17.80;9.10;;;5.50;99.90;;;;;;4164800;28;20454;-75
2022/11/06 06:26:26;;;;;;;19.07;9.27;;;5.10;99.90;;;;;;4166141;28;20550;-76
2022/11/06 06:28:28;;;;;;;17.27;8.07;;;5.20;99.90;;;;;;4168379;28;20463;-75
2022/11/06 06:30:30;;;;;;;16.07;8.50;;;5.10;99.90;;;;;;4161932;28;20463;-76
2022/11/06 06:32:33;;;;;;;18.70;8.57;;;5.20;99.90;;;;;;4170393;28;21334;-75
2022/11/06 06:34:36;;;;;;;16.67;8.50;;;5.20;99.90;;;;;;4166938;28;20458;-76
2022/11/06 06:36:38;;;;;;;18.00;8.50;;;5.20;99.90;;;;;;4167879;28;20472;-76
2022/11/06 06:38:40;;;;;;;18.77;8.80;;;5.20;99.90;;;;;;4163159;28;20461;-76
2022/11/06 06:40:42;;;;;;;16.07;8.10;;;5.20;99.90;;;;;;4158023;28;20468;-76
2022/11/06 06:42:44;;;;;;;16.00;8.63;;;5.20;99.90;;;;;;4168115;28;20532;-76
2022/11/06 06:44:46;;;;;;;15.80;8.30;;;5.20;99.90;;;;;;4165310;28;20470;-76
2022/11/06 06:46:48;;;;;;;15.73;8.17;;;5.20;99.90;;;;;;4162350;28;20958;-76
2022/11/06 06:48:50;;;;;;;19.43;8.47;;;5.30;99.90;;;;;;4158971;28;20553;-76
2022/11/06 06:50:56;;;;;;;16.17;8.00;;;5.20;99.90;;;;;;4171517;28;20460;-76
2022/11/06 06:52:57;;;;;;;17.13;7.87;;;5.20;99.90;;;;;;4166076;28;20442;-75
2022/11/06 06:54:59;;;;;;;17.37;8.97;;;5.20;99.90;;;;;;4162451;28;20543;-76
2022/11/06 06:57:01;;;;;;;17.00;9.23;;;5.20;99.90;;;;;;4170651;28;20578;-75
2022/11/06 06:59:03;;;;;;;15.13;8.53;;;5.20;99.90;;;;;;4169121;28;20453;-75
2022/11/06 07:01:09;;;;;;;16.97;9.17;;;5.30;99.90;;;;;;4165578;28;20484;-76
2022/11/06 07:03:10;;;;;;;18.63;8.87;;;5.30;99.90;;;;;;4169209;28;20438;-75
2022/11/06 07:05:12;;;;;;;17.77;8.20;;;5.30;99.90;;;;;;4164747;28;20482;-75
2022/11/06 07:07:15;;;;;;;14.80;8.00;;;5.30;99.90;;;;;;4167663;28;20455;-75
2022/11/06 07:09:17;;;;;;;20.70;9.00;;;5.30;99.90;;;;;;4169500;28;20549;-75
2022/11/06 07:11:19;;;;;;;16.53;9.00;;;5.30;99.90;;;;;;4165859;28;20460;-77
2022/11/06 07:13:21;;;;;;;16.33;8.07;;;5.40;99.90;;;;;;4166698;28;20465;-77
2022/11/06 07:15:22;;;;;;;20.80;8.40;;;5.40;99.90;;;;;;4167273;28;20539;-77
2022/11/06 07:17:24;;;;;;;17.03;8.60;;;5.40;99.90;;;;;;4168969;28;20455;-76
2022/11/06 07:19:29;;;;;;;19.20;8.03;;;5.40;99.90;;;;;;4164322;28;20460;-75
2022/11/06 07:21:31;;;;;;;17.00;8.20;;;5.50;99.90;;;;;;4164479;28;21064;-76
2022/11/06 07:23:34;;;;;;;16.07;7.53;;;5.50;99.90;;;;;;4170568;28;20530;-75
2022/11/06 07:25:36;;;;;;;22.10;8.50;;;5.50;99.90;;;;;;4159175;28;20490;-75
2022/11/06 07:27:40;;;;;;;13.30;7.20;;;5.50;99.90;;;;;;4158599;28;20454;-75
2022/11/06 07:29:42;;;;;;;14.93;7.63;;;5.60;99.90;;;;;;4171635;28;20460;-76
2022/11/06 07:31:43;;;;;;;14.23;7.00;;;5.60;99.90;;;;;;4164055;28;20513;-76
2022/11/06 07:33:45;;;;;;;15.73;7.57;;;5.60;99.90;;;;;;4156891;28;20536;-76
2022/11/06 07:35:47;;;;;;;13.23;7.23;;;5.60;99.90;;;;;;4166778;28;21097;-76
2022/11/06 07:37:49;;;;;;;14.80;7.10;;;5.60;99.90;;;;;;4162912;28;20545;-75
2022/11/06 07:39:52;;;;;;;14.40;7.70;;;5.70;99.90;;;;;;4158785;28;20461;-76
2022/11/06 07:41:54;;;;;;;15.93;7.30;;;5.70;99.90;;;;;;4161228;28;20444;-75
2022/11/06 07:43:56;;;;;;;13.47;7.00;;;5.80;99.90;;;;;;4156137;28;20452;-77
2022/11/06 07:46:00;;;;;;;14.73;6.83;;;5.80;99.90;;;;;;4164612;28;20494;-76
2022/11/06 07:48:02;;;;;;;14.00;7.07;;;5.80;99.90;;;;;;4169243;28;20456;-75
2022/11/06 07:50:05;;;;;;;14.10;7.00;;;5.80;99.90;;;;;;4162624;28;20463;-76
2022/11/06 07:52:07;;;;;;;14.43;7.30;;;5.90;99.90;;;;;;4167897;28;20458;-75
2022/11/06 07:54:10;;;;;;;16.20;7.10;;;5.80;99.90;;;;;;4167415;28;20560;-76
2022/11/06 07:56:13;;;;;;;13.33;7.43;;;5.90;99.90;;;;;;4159923;28;20502;-75
2022/11/06 07:58:15;;;;;;;14.63;7.47;;;5.90;99.90;;;;;;4169023;28;20489;-76
2022/11/06 08:00:17;;;;;;;13.23;7.27;;;6.00;99.90;;;;;;4166404;28;20459;-75
2022/11/06 08:02:19;;;;;;;15.37;7.27;;;6.00;99.90;;;;;;4163240;28;20451;-76
2022/11/06 08:04:21;;;;;;;12.33;7.40;;;6.00;99.90;;;;;;4164698;28;20835;-76
2022/11/06 08:06:23;;;;;;;15.50;7.20;;;6.10;99.90;;;;;;4163183;28;20489;-76
2022/11/06 08:08:25;;;;;;;15.37;6.63;;;6.10;99.90;;;;;;4159804;28;20465;-76
2022/11/06 08:10:27;;;;;;;16.30;7.33;;;6.10;99.90;;;;;;4166718;28;20546;-77
2022/11/06 08:12:30;;;;;;;14.73;7.00;;;6.20;99.90;;;;;;4160024;28;20852;-75
2022/11/06 08:14:32;;;;;;;16.83;7.70;;;6.20;99.90;;;;;;4164907;28;20562;-75
2022/11/06 08:16:37;;;;;;;13.70;6.80;;;6.30;99.90;;;;;;4165921;28;20504;-75
2022/11/06 08:18:39;;;;;;;15.47;6.80;;;6.20;99.90;;;;;;4162672;28;20544;-77
2022/11/06 08:20:41;;;;;;;12.40;6.57;;;6.50;99.90;;;;;;4162539;28;20883;-76
2022/11/06 08:22:43;;;;;;;15.37;7.50;;;6.30;99.90;;;;;;4158622;28;20454;-76
2022/11/06 08:24:45;;;;;;;13.30;6.90;;;6.40;99.90;;;;;;4162205;28;20547;-76
2022/11/06 08:26:47;;;;;;;11.33;6.60;;;6.30;99.90;;;;;;4162624;28;20501;-75
2022/11/06 08:28:50;;;;;;;15.50;7.50;;;6.40;99.90;;;;;;4163778;28;20476;-75
2022/11/06 08:30:52;;;;;;;13.63;7.03;;;6.50;99.90;;;;;;4160519;28;20474;-76
2022/11/06 08:32:54;;;;;;;15.80;7.30;;;6.50;99.90;;;;;;4160653;28;20459;-76
2022/11/06 08:34:56;;;;;;;12.30;6.50;;;6.60;99.90;;;;;;4160948;28;20990;-77
2022/11/06 08:36:58;;;;;;;13.17;6.73;;;6.60;99.90;;;;;;4164272;28;20987;-76
2022/11/06 08:39:00;;;;;;;13.23;6.87;;;6.70;99.90;;;;;;4162143;28;20475;-77
2022/11/06 08:41:05;;;;;;;13.93;7.03;;;6.70;99.90;;;;;;4157409;28;20458;-76
2022/11/06 08:43:09;;;;;;;19.13;7.07;;;6.70;99.90;;;;;;4161535;28;20459;-76
2022/11/06 08:45:12;;;;;;;12.20;6.83;;;6.80;99.90;;;;;;4162403;28;20443;-76
2022/11/06 08:47:17;;;;;;;12.37;6.93;;;6.80;99.90;;;;;;4160102;28;20569;-76
2022/11/06 08:49:19;;;;;;;18.33;7.23;;;6.90;99.90;;;;;;4163520;28;20496;-76
2022/11/06 08:51:23;;;;;;;14.10;6.37;;;6.90;99.90;;;;;;4160988;28;20535;-75
2022/11/06 08:53:25;;;;;;;14.07;6.30;;;7.00;99.90;;;;;;4161503;28;20457;-75
2022/11/06 08:55:27;;;;;;;13.47;7.10;;;7.00;99.90;;;;;;4161666;28;20575;-75
2022/11/06 08:57:29;;;;;;;13.33;6.27;;;7.10;99.90;;;;;;4161857;28;20492;-76
2022/11/06 08:59:31;;;;;;;11.67;6.73;;;7.10;99.90;;;;;;4162605;28;20458;-76
2022/11/06 09:01:35;;;;;;;11.63;6.70;;;7.20;99.90;;;;;;4165180;28;20452;-75
2022/11/06 09:03:36;;;;;;;14.03;6.70;;;7.20;99.90;;;;;;4164976;28;20568;-76
2022/11/06 09:05:40;;;;;;;13.57;6.67;;;7.20;99.90;;;;;;4160505;28;20513;-75
2022/11/06 09:07:42;;;;;;;13.27;6.33;;;7.30;99.90;;;;;;4166319;28;20452;-76
2022/11/06 09:09:44;;;;;;;12.10;6.83;;;7.30;99.90;;;;;;4162760;28;20977;-76
2022/11/06 09:11:46;;;;;;;12.27;6.37;;;7.40;99.90;;;;;;4160492;28;20828;-76
2022/11/06 09:13:48;;;;;;;13.60;6.67;;;7.40;99.90;;;;;;4164852;28;20448;-76
2022/11/06 09:15:50;;;;;;;12.30;6.27;;;7.40;99.90;;;;;;4159233;28;20473;-77
2022/11/06 09:17:53;;;;;;;9.83;6.70;;;7.50;99.90;;;;;;4162409;28;20448;-76
2022/11/06 09:19:55;;;;;;;12.63;6.60;;;7.50;99.90;;;;;;4170864;28;20842;-76
2022/11/06 09:21:57;;;;;;;12.23;6.27;;;7.60;99.90;;;;;;4156915;28;20843;-76
2022/11/06 09:23:59;;;;;;;9.80;5.83;;;7.60;99.90;;;;;;4159062;28;21006;-76
2022/11/06 09:26:01;;;;;;;11.03;6.87;;;7.70;99.90;;;;;;4162429;28;21375;-76
2022/11/06 09:28:03;;;;;;;13.23;6.07;;;7.70;99.90;;;;;;4158638;28;20954;-76
2022/11/06 09:30:06;;;;;;;15.17;6.17;;;7.80;99.90;;;;;;4155532;28;20950;-76
2022/11/06 09:32:07;;;;;;;11.87;6.13;;;7.80;99.90;;;;;;4164470;28;20893;-76
2022/11/06 09:34:11;;;;;;;10.93;5.73;;;7.90;99.90;;;;;;4160739;28;20565;-76
2022/11/06 09:36:13;;;;;;;10.27;5.93;;;8.00;99.90;;;;;;4161942;28;20579;-76
2022/11/06 09:38:15;;;;;;;11.30;5.70;;;8.00;99.90;;;;;;4164025;28;20452;-77
2022/11/06 09:40:23;;;;;;;9.67;5.30;;;8.10;99.90;;;;;;4161369;28;20458;-76
2022/11/06 09:42:42;;;;;;;8.00;5.17;;;8.10;99.90;;;;;;4161175;28;20456;-76
2022/11/06 09:44:59;;;;;;;11.73;5.47;;;8.10;99.90;;;;;;4160620;28;20461;-76
2022/11/06 09:47:06;;;;;;;11.23;5.60;;;8.20;99.90;;;;;;4158930;28;20539;-77
2022/11/06 09:49:18;;;;;;;11.40;5.03;;;8.30;99.90;;;;;;4158883;28;20962;-76
2022/11/06 09:51:28;;;;;;;11.00;5.63;;;8.40;99.90;;;;;;4160708;28;20508;-76
2022/11/06 09:53:36;;;;;;;11.40;5.60;;;8.40;99.90;;;;;;4161592;28;20951;-76
2022/11/06 09:55:41;;;;;;;11.97;5.10;;;8.50;99.90;;;;;;4161162;28;20464;-76
2022/11/06 09:57:47;;;;;;;15.77;5.60;;;8.50;99.90;;;;;;4163162;28;20445;-76
2022/11/06 09:59:50;;;;;;;13.10;4.87;;;8.70;99.90;;;;;;4149878;28;20891;-76
2022/11/06 10:01:55;;;;;;;9.57;5.17;;;8.60;99.90;;;;;;4161185;28;20712;-76
2022/11/06 10:03:59;;;;;;;9.40;4.97;;;8.60;99.90;;;;;;4160373;28;20536;-75
2022/11/06 10:06:02;;;;;;;12.20;4.97;;;8.70;99.90;;;;;;4161499;28;20565;-76
2022/11/06 10:08:12;;;;;;;8.90;5.00;;;8.70;99.90;;;;;;4161712;28;20556;-75
2022/11/06 10:10:17;;;;;;;10.53;5.93;;;8.70;99.90;;;;;;4160180;28;20277;-75
2022/11/06 10:12:28;;;;;;;9.13;4.87;;;8.80;99.90;;;;;;4161289;28;20535;-75
2022/11/06 10:14:51;;;;;;;8.83;4.93;;;8.90;99.90;;;;;;4149323;28;20457;-75
2022/11/06 10:17:05;;;;;;;11.27;4.73;;;8.90;99.90;;;;;;4166534;28;20894;-76
2022/11/06 10:19:11;;;;;;;9.40;4.67;;;9.00;99.90;;;;;;4158233;28;20290;-76
2022/11/06 10:21:22;;;;;;;10.70;5.53;;;9.10;99.90;;;;;;4156026;28;20461;-75
2022/11/06 10:23:34;;;;;;;8.37;4.37;;;9.10;99.90;;;;;;4167858;28;20454;-76
2022/11/06 10:25:44;;;;;;;7.37;4.00;;;9.20;99.90;;;;;;4160598;28;20764;-75
2022/11/06 10:28:00;;;;;;;9.43;4.53;;;9.30;99.90;;;;;;4160718;28;20518;-77
2022/11/06 10:30:09;;;;;;;7.40;4.27;;;9.30;99.90;;;;;;4163193;28;20824;-76
2022/11/06 10:32:41;;;;;;;6.63;4.20;;;9.40;99.90;;;;;;4162587;28;20695;-76
2022/11/06 10:34:48;;;;;;;8.57;4.13;;;9.50;99.90;;;;;;4160629;28;20212;-76
2022/11/06 10:36:57;;;;;;;8.23;4.00;;;9.60;99.90;;;;;;4161044;28;20954;-76
2022/11/06 10:39:01;;;;;;;6.60;3.70;;;9.60;99.90;;;;;;4160041;28;20848;-77
2022/11/06 10:41:03;;;;;;;9.83;4.40;;;9.70;99.90;;;;;;4154488;28;20200;-77
2022/11/06 10:43:14;;;;;;;6.07;4.00;;;9.80;99.90;;;;;;4164168;28;20216;-78
2022/11/06 10:45:18;;;;;;;7.30;4.00;;;9.80;99.90;;;;;;4161121;28;20234;-76
2022/11/06 10:47:21;;;;;;;9.67;4.27;;;9.90;99.90;;;;;;4159090;28;20681;-76
2022/11/06 10:49:33;;;;;;;5.87;3.80;;;10.00;99.90;;;;;;4167107;28;20639;-77
2022/11/06 10:51:52;;;;;;;7.23;3.73;;;10.00;99.90;;;;;;4167350;28;20208;-76
2022/11/06 10:54:06;;;;;;;7.70;4.03;;;10.10;99.90;;;;;;4164425;28;20254;-76
2022/11/06 10:56:23;;;;;;;6.27;4.00;;;10.20;99.90;;;;;;4167190;28;20236;-77
2022/11/06 10:58:29;;;;;;;8.13;3.97;;;10.30;99.90;;;;;;4162545;28;20216;-76
2022/11/06 11:00:31;;;;;;;6.93;3.70;;;10.40;99.90;;;;;;4162170;28;20242;-75
2022/11/06 11:02:38;;;;;;;7.10;4.03;;;10.40;99.90;;;;;;4161211;28;20245;-75